sensor_id;sensor_type;location;lat;lon;timestamp;pressure;altitude;pressure_sealevel;temperature;humidity
63339;BME280;70568;51.378;-1.342;2024-03-08T00:02:09;99929.31;;;3.00;30.52
63339;BME280;70568;51.378;-1.342;2024-03-08T00:04:36;99927.75;;;5.07;29.23
63339;BME280;70568;51.378;-1.342;2024-03-08T00:07:04;99927.38;;;3.31;30.21
63339;BME280;70568;51.378;-1.342;2024-03-08T00:09:30;99921.10;;;4.75;29.21
63339;BME280;70568;51.378;-1.342;2024-03-08T00:11:57;99921.95;;;4.30;29.50
63339;BME280;70568;51.378;-1.342;2024-03-08T00:14:24;99921.74;;;4.21;29.57
63339;BME280;70568;51.378;-1.342;2024-03-08T00:16:51;99917.15;;;4.29;29.51
63339;BME280;70568;51.378;-1.342;2024-03-08T00:19:18;99912.36;;;2.36;30.89
63339;BME280;70568;51.378;-1.342;2024-03-08T00:21:45;99909.56;;;3.77;29.91
63339;BME280;70568;51.378;-1.342;2024-03-08T00:24:11;99906.41;;;4.45;30.04
63339;BME280;70568;51.378;-1.342;2024-03-08T00:26:38;99902.46;;;3.59;29.13
63339;BME280;70568;51.378;-1.342;2024-03-08T00:29:04;99902.71;;;4.48;28.95
63339;BME280;70568;51.378;-1.342;2024-03-08T00:31:31;99899.71;;;4.77;29.07
63339;BME280;70568;51.378;-1.342;2024-03-08T00:33:58;99900.12;;;5.23;29.59
63339;BME280;70568;51.378;-1.342;2024-03-08T00:36:25;99899.99;;;4.10;29.52
63339;BME280;70568;51.378;-1.342;2024-03-08T00:38:51;99897.18;;;5.31;29.53
63339;BME280;70568;51.378;-1.342;2024-03-08T00:41:18;99891.77;;;6.51;28.68
63339;BME280;70568;51.378;-1.342;2024-03-08T00:43:44;99890.86;;;4.59;28.45
63339;BME280;70568;51.378;-1.342;2024-03-08T00:46:11;99885.45;;;4.40;28.94
63339;BME280;70568;51.378;-1.342;2024-03-08T00:48:38;99883.88;;;5.28;28.30
63339;BME280;70568;51.378;-1.342;2024-03-08T00:51:05;99885.01;;;5.17;28.63
63339;BME280;70568;51.378;-1.342;2024-03-08T00:53:31;99886.60;;;4.24;28.87
63339;BME280;70568;51.378;-1.342;2024-03-08T00:55:59;99879.28;;;4.19;28.42
63339;BME280;70568;51.378;-1.342;2024-03-08T00:58:25;99874.12;;;5.10;28.17
63339;BME280;70568;51.378;-1.342;2024-03-08T01:00:52;99874.17;;;4.80;28.94
63339;BME280;70568;51.378;-1.342;2024-03-08T01:03:19;99868.26;;;4.10;29.02
63339;BME280;70568;51.378;-1.342;2024-03-08T01:05:45;99865.09;;;3.89;28.79
63339;BME280;70568;51.378;-1.342;2024-03-08T01:08:12;99857.07;;;4.90;28.79
63339;BME280;70568;51.378;-1.342;2024-03-08T01:10:39;99853.87;;;4.81;28.85
63339;BME280;70568;51.378;-1.342;2024-03-08T01:13:06;99855.82;;;2.56;29.88
63339;BME280;70568;51.378;-1.342;2024-03-08T01:15:33;99849.12;;;2.41;30.31
63339;BME280;70568;51.378;-1.342;2024-03-08T01:18:01;99839.28;;;3.95;29.56
63339;BME280;70568;51.378;-1.342;2024-03-08T01:20:28;99837.09;;;3.94;29.61
63339;BME280;70568;51.378;-1.342;2024-03-08T01:22:55;99832.68;;;3.55;30.60
63339;BME280;70568;51.378;-1.342;2024-03-08T01:25:22;99822.93;;;4.75;29.56
63339;BME280;70568;51.378;-1.342;2024-03-08T01:27:49;99819.93;;;4.58;29.62
63339;BME280;70568;51.378;-1.342;2024-03-08T01:30:16;99825.72;;;2.76;30.72
63339;BME280;70568;51.378;-1.342;2024-03-08T01:32:42;99816.05;;;3.49;29.93
63339;BME280;70568;51.378;-1.342;2024-03-08T01:35:10;99814.62;;;3.60;30.23
63339;BME280;70568;51.378;-1.342;2024-03-08T01:37:37;99809.58;;;4.70;29.81
63339;BME280;70568;51.378;-1.342;2024-03-08T01:40:06;99809.29;;;4.85;30.19
63339;BME280;70568;51.378;-1.342;2024-03-08T01:42:33;99806.89;;;3.28;31.10
63339;BME280;70568;51.378;-1.342;2024-03-08T01:45:02;99800.59;;;2.66;31.66
63339;BME280;70568;51.378;-1.342;2024-03-08T01:47:29;99794.22;;;4.61;30.63
63339;BME280;70568;51.378;-1.342;2024-03-08T01:49:56;99789.59;;;3.93;30.70
63339;BME280;70568;51.378;-1.342;2024-03-08T01:52:22;99788.18;;;4.06;31.04
63339;BME280;70568;51.378;-1.342;2024-03-08T01:54:49;99777.76;;;4.18;30.56
63339;BME280;70568;51.378;-1.342;2024-03-08T01:57:16;99778.61;;;1.86;31.39
63339;BME280;70568;51.378;-1.342;2024-03-08T01:59:43;99763.97;;;4.06;30.21
63339;BME280;70568;51.378;-1.342;2024-03-08T02:02:11;99756.92;;;3.81;30.48
63339;BME280;70568;51.378;-1.342;2024-03-08T02:04:41;99754.72;;;3.20;31.44
63339;BME280;70568;51.378;-1.342;2024-03-08T02:07:08;99750.11;;;2.53;31.33
63339;BME280;70568;51.378;-1.342;2024-03-08T02:09:35;99745.75;;;2.16;32.55
63339;BME280;70568;51.378;-1.342;2024-03-08T02:12:02;99735.66;;;3.34;30.90
63339;BME280;70568;51.378;-1.342;2024-03-08T02:14:29;99737.73;;;1.51;32.20
63339;BME280;70568;51.378;-1.342;2024-03-08T02:17:00;99736.94;;;2.51;31.67
63339;BME280;70568;51.378;-1.342;2024-03-08T02:19:27;99728.31;;;2.64;31.45
63339;BME280;70568;51.378;-1.342;2024-03-08T02:21:55;99719.75;;;4.09;31.50
63339;BME280;70568;51.378;-1.342;2024-03-08T02:24:22;99712.88;;;2.87;31.12
63339;BME280;70568;51.378;-1.342;2024-03-08T02:26:49;99715.63;;;1.44;32.32
63339;BME280;70568;51.378;-1.342;2024-03-08T02:29:17;99709.45;;;3.51;31.40
63339;BME280;70568;51.378;-1.342;2024-03-08T02:31:44;99700.73;;;3.39;31.59
63339;BME280;70568;51.378;-1.342;2024-03-08T02:34:11;99701.20;;;2.79;32.24
63339;BME280;70568;51.378;-1.342;2024-03-08T02:36:37;99687.31;;;3.49;31.20
63339;BME280;70568;51.378;-1.342;2024-03-08T02:39:04;99682.81;;;2.40;31.87
63339;BME280;70568;51.378;-1.342;2024-03-08T02:41:31;99677.20;;;2.69;32.00
63339;BME280;70568;51.378;-1.342;2024-03-08T02:43:58;99671.64;;;4.54;30.99
63339;BME280;70568;51.378;-1.342;2024-03-08T02:46:25;99673.40;;;2.87;31.46
63339;BME280;70568;51.378;-1.342;2024-03-08T02:48:52;99672.34;;;3.30;32.13
63339;BME280;70568;51.378;-1.342;2024-03-08T02:51:19;99676.51;;;2.56;33.64
63339;BME280;70568;51.378;-1.342;2024-03-08T02:53:46;99669.12;;;0.65;32.92
63339;BME280;70568;51.378;-1.342;2024-03-08T02:56:13;99667.93;;;3.62;32.12
63339;BME280;70568;51.378;-1.342;2024-03-08T02:58:40;99664.81;;;2.20;32.70
63339;BME280;70568;51.378;-1.342;2024-03-08T03:01:06;99660.32;;;1.98;34.09
63339;BME280;70568;51.378;-1.342;2024-03-08T03:03:33;99656.33;;;1.72;33.90
63339;BME280;70568;51.378;-1.342;2024-03-08T03:06:01;99656.63;;;1.87;34.55
63339;BME280;70568;51.378;-1.342;2024-03-08T03:08:28;99653.34;;;1.78;33.44
63339;BME280;70568;51.378;-1.342;2024-03-08T03:10:55;99651.67;;;2.24;34.24
63339;BME280;70568;51.378;-1.342;2024-03-08T03:13:22;99652.73;;;1.30;34.73
63339;BME280;70568;51.378;-1.342;2024-03-08T03:15:49;99647.75;;;3.03;33.30
63339;BME280;70568;51.378;-1.342;2024-03-08T03:18:16;99644.53;;;3.61;32.79
63339;BME280;70568;51.378;-1.342;2024-03-08T03:20:43;99644.38;;;1.09;35.07
63339;BME280;70568;51.378;-1.342;2024-03-08T03:23:09;99640.19;;;1.75;34.94
63339;BME280;70568;51.378;-1.342;2024-03-08T03:25:36;99637.53;;;1.13;35.49
63339;BME280;70568;51.378;-1.342;2024-03-08T03:28:04;99638.78;;;2.36;34.00
63339;BME280;70568;51.378;-1.342;2024-03-08T03:30:31;99637.74;;;1.21;34.96
63339;BME280;70568;51.378;-1.342;2024-03-08T03:32:59;99635.18;;;3.04;33.86
63339;BME280;70568;51.378;-1.342;2024-03-08T03:35:28;99630.82;;;1.76;33.58
63339;BME280;70568;51.378;-1.342;2024-03-08T03:37:55;99625.48;;;4.76;32.02
63339;BME280;70568;51.378;-1.342;2024-03-08T03:40:21;99624.95;;;1.63;32.99
63339;BME280;70568;51.378;-1.342;2024-03-08T03:42:48;99614.85;;;3.05;32.48
63339;BME280;70568;51.378;-1.342;2024-03-08T03:45:15;99613.30;;;1.70;32.80
63339;BME280;70568;51.378;-1.342;2024-03-08T03:47:42;99605.42;;;2.50;32.76
63339;BME280;70568;51.378;-1.342;2024-03-08T03:50:10;99601.39;;;3.41;32.32
63339;BME280;70568;51.378;-1.342;2024-03-08T03:52:37;99593.56;;;2.83;33.00
63339;BME280;70568;51.378;-1.342;2024-03-08T03:55:04;99597.77;;;1.35;34.18
63339;BME280;70568;51.378;-1.342;2024-03-08T03:57:31;99598.28;;;0.85;33.74
63339;BME280;70568;51.378;-1.342;2024-03-08T04:00:00;99592.47;;;2.61;33.12
63339;BME280;70568;51.378;-1.342;2024-03-08T04:02:27;99593.61;;;2.27;34.38
63339;BME280;70568;51.378;-1.342;2024-03-08T04:04:54;99590.99;;;3.14;33.47
63339;BME280;70568;51.378;-1.342;2024-03-08T04:07:21;99593.11;;;2.03;33.83
63339;BME280;70568;51.378;-1.342;2024-03-08T04:09:48;99581.21;;;3.86;32.81
63339;BME280;70568;51.378;-1.342;2024-03-08T04:12:14;99580.66;;;4.82;31.61
63339;BME280;70568;51.378;-1.342;2024-03-08T04:14:42;99580.97;;;2.54;32.45
63339;BME280;70568;51.378;-1.342;2024-03-08T04:17:09;99579.46;;;1.99;33.08
63339;BME280;70568;51.378;-1.342;2024-03-08T04:19:36;99570.25;;;2.30;32.76
63339;BME280;70568;51.378;-1.342;2024-03-08T04:22:03;99567.44;;;3.14;32.67
63339;BME280;70568;51.378;-1.342;2024-03-08T04:24:29;99562.12;;;3.57;32.09
63339;BME280;70568;51.378;-1.342;2024-03-08T04:26:56;99564.47;;;3.56;32.19
63339;BME280;70568;51.378;-1.342;2024-03-08T04:29:23;99557.39;;;3.85;31.89
63339;BME280;70568;51.378;-1.342;2024-03-08T04:31:50;99561.71;;;1.19;33.56
63339;BME280;70568;51.378;-1.342;2024-03-08T04:34:16;99555.20;;;2.67;32.26
63339;BME280;70568;51.378;-1.342;2024-03-08T04:36:43;99552.44;;;2.97;32.10
63339;BME280;70568;51.378;-1.342;2024-03-08T04:39:11;99547.01;;;1.85;32.61
63339;BME280;70568;51.378;-1.342;2024-03-08T04:41:38;99543.14;;;3.94;31.18
63339;BME280;70568;51.378;-1.342;2024-03-08T04:44:05;99542.39;;;3.60;31.92
63339;BME280;70568;51.378;-1.342;2024-03-08T04:46:32;99540.24;;;1.64;32.41
63339;BME280;70568;51.378;-1.342;2024-03-08T04:48:59;99535.00;;;2.22;33.40
63339;BME280;70568;51.378;-1.342;2024-03-08T04:51:26;99532.38;;;2.52;33.17
63339;BME280;70568;51.378;-1.342;2024-03-08T04:53:53;99526.60;;;3.07;32.26
63339;BME280;70568;51.378;-1.342;2024-03-08T04:56:20;99524.84;;;1.57;33.14
63339;BME280;70568;51.378;-1.342;2024-03-08T04:58:46;99525.25;;;2.35;32.64
63339;BME280;70568;51.378;-1.342;2024-03-08T05:01:14;99525.85;;;0.80;33.96
63339;BME280;70568;51.378;-1.342;2024-03-08T05:03:40;99536.26;;;-0.86;35.67
63339;BME280;70568;51.378;-1.342;2024-03-08T05:06:07;99528.55;;;2.41;33.22
63339;BME280;70568;51.378;-1.342;2024-03-08T05:08:34;99521.54;;;3.42;31.92
63339;BME280;70568;51.378;-1.342;2024-03-08T05:11:02;99524.80;;;2.08;32.71
63339;BME280;70568;51.378;-1.342;2024-03-08T05:13:29;99521.16;;;2.94;32.36
63339;BME280;70568;51.378;-1.342;2024-03-08T05:15:56;99517.74;;;2.08;32.43
63339;BME280;70568;51.378;-1.342;2024-03-08T05:18:23;99511.74;;;3.68;31.55
63339;BME280;70568;51.378;-1.342;2024-03-08T05:20:50;99508.85;;;2.09;32.88
63339;BME280;70568;51.378;-1.342;2024-03-08T05:23:16;99514.53;;;1.32;34.02
63339;BME280;70568;51.378;-1.342;2024-03-08T05:25:44;99513.45;;;0.27;34.66
63339;BME280;70568;51.378;-1.342;2024-03-08T05:28:10;99509.16;;;1.75;33.40
63339;BME280;70568;51.378;-1.342;2024-03-08T05:30:38;99503.66;;;2.96;32.55
63339;BME280;70568;51.378;-1.342;2024-03-08T05:33:05;99504.28;;;3.26;32.52
63339;BME280;70568;51.378;-1.342;2024-03-08T05:35:32;99502.35;;;2.26;32.92
63339;BME280;70568;51.378;-1.342;2024-03-08T05:37:59;99495.22;;;2.12;32.64
63339;BME280;70568;51.378;-1.342;2024-03-08T05:40:26;99502.29;;;-2.12;38.17
63339;BME280;70568;51.378;-1.342;2024-03-08T05:42:52;99496.26;;;0.58;35.88
63339;BME280;70568;51.378;-1.342;2024-03-08T05:45:19;99493.81;;;-0.59;36.09
63339;BME280;70568;51.378;-1.342;2024-03-08T05:47:46;99488.71;;;-0.96;37.20
63339;BME280;70568;51.378;-1.342;2024-03-08T05:50:13;99485.96;;;-1.23;36.52
63339;BME280;70568;51.378;-1.342;2024-03-08T05:52:39;99484.31;;;-0.98;35.63
63339;BME280;70568;51.378;-1.342;2024-03-08T05:55:07;99484.11;;;-1.21;36.74
63339;BME280;70568;51.378;-1.342;2024-03-08T05:57:34;99485.16;;;-0.79;35.81
63339;BME280;70568;51.378;-1.342;2024-03-08T06:00:02;99482.00;;;0.15;35.60
63339;BME280;70568;51.378;-1.342;2024-03-08T06:02:30;99479.78;;;-1.07;36.39
63339;BME280;70568;51.378;-1.342;2024-03-08T06:04:56;99473.25;;;1.00;34.84
63339;BME280;70568;51.378;-1.342;2024-03-08T06:07:23;99470.87;;;0.20;34.83
63339;BME280;70568;51.378;-1.342;2024-03-08T06:09:50;99465.63;;;1.47;34.54
63339;BME280;70568;51.378;-1.342;2024-03-08T06:12:17;99458.05;;;1.83;33.29
63339;BME280;70568;51.378;-1.342;2024-03-08T06:14:45;99455.16;;;1.18;33.13
63339;BME280;70568;51.378;-1.342;2024-03-08T06:17:11;99456.96;;;-0.37;34.41
63339;BME280;70568;51.378;-1.342;2024-03-08T06:19:37;99450.92;;;1.65;33.67
63339;BME280;70568;51.378;-1.342;2024-03-08T06:22:04;99451.22;;;1.36;34.38
63339;BME280;70568;51.378;-1.342;2024-03-08T06:24:30;99447.54;;;1.92;34.84
63339;BME280;70568;51.378;-1.342;2024-03-08T06:26:57;99450.02;;;-0.53;35.68
63339;BME280;70568;51.378;-1.342;2024-03-08T06:29:24;99449.48;;;-0.21;35.84
63339;BME280;70568;51.378;-1.342;2024-03-08T06:31:51;99448.38;;;0.53;35.13
63339;BME280;70568;51.378;-1.342;2024-03-08T06:34:18;99449.13;;;0.53;35.56
63339;BME280;70568;51.378;-1.342;2024-03-08T06:36:45;99446.97;;;-0.46;36.72
63339;BME280;70568;51.378;-1.342;2024-03-08T06:39:13;99444.32;;;0.04;35.16
63339;BME280;70568;51.378;-1.342;2024-03-08T06:41:40;99439.07;;;0.70;33.85
63339;BME280;70568;51.378;-1.342;2024-03-08T06:44:06;99439.74;;;0.96;34.41
63339;BME280;70568;51.378;-1.342;2024-03-08T06:46:34;99443.50;;;-0.09;35.82
63339;BME280;70568;51.378;-1.342;2024-03-08T06:49:01;99446.11;;;-0.24;36.17
63339;BME280;70568;51.378;-1.342;2024-03-08T06:51:28;99444.67;;;-0.75;36.43
63339;BME280;70568;51.378;-1.342;2024-03-08T06:53:55;99445.42;;;-0.50;36.46
63339;BME280;70568;51.378;-1.342;2024-03-08T06:56:22;99440.29;;;1.46;35.26
63339;BME280;70568;51.378;-1.342;2024-03-08T06:58:49;99448.19;;;1.19;35.12
63339;BME280;70568;51.378;-1.342;2024-03-08T07:01:16;99449.78;;;2.29;34.25
63339;BME280;70568;51.378;-1.342;2024-03-08T07:03:43;99457.55;;;0.55;35.66
63339;BME280;70568;51.378;-1.342;2024-03-08T07:06:10;99457.58;;;-0.60;37.42
63339;BME280;70568;51.378;-1.342;2024-03-08T07:08:37;99460.69;;;0.93;35.16
63339;BME280;70568;51.378;-1.342;2024-03-08T07:11:04;99461.63;;;-1.10;37.21
63339;BME280;70568;51.378;-1.342;2024-03-08T07:13:31;99461.02;;;0.03;36.36
63339;BME280;70568;51.378;-1.342;2024-03-08T07:15:58;99464.15;;;0.33;36.92
63339;BME280;70568;51.378;-1.342;2024-03-08T07:18:25;99470.78;;;-0.47;36.95
63339;BME280;70568;51.378;-1.342;2024-03-08T07:20:52;99468.66;;;1.06;36.99
63339;BME280;70568;51.378;-1.342;2024-03-08T07:23:19;99467.64;;;1.19;35.58
63339;BME280;70568;51.378;-1.342;2024-03-08T07:25:48;99460.93;;;-1.06;38.42
63339;BME280;70568;51.378;-1.342;2024-03-08T07:28:14;99467.93;;;-0.02;38.66
63339;BME280;70568;51.378;-1.342;2024-03-08T07:30:41;99466.77;;;2.23;36.00
63339;BME280;70568;51.378;-1.342;2024-03-08T07:33:08;99466.94;;;0.27;36.76
63339;BME280;70568;51.378;-1.342;2024-03-08T07:35:35;99464.71;;;1.51;36.18
63339;BME280;70568;51.378;-1.342;2024-03-08T07:38:03;99458.48;;;1.10;35.79
63339;BME280;70568;51.378;-1.342;2024-03-08T07:40:30;99460.99;;;0.86;35.99
63339;BME280;70568;51.378;-1.342;2024-03-08T07:42:57;99453.73;;;-1.45;37.92
63339;BME280;70568;51.378;-1.342;2024-03-08T07:45:23;99452.82;;;-0.51;37.02
63339;BME280;70568;51.378;-1.342;2024-03-08T07:47:50;99449.22;;;-0.90;37.29
63339;BME280;70568;51.378;-1.342;2024-03-08T07:50:17;99446.78;;;0.12;36.81
63339;BME280;70568;51.378;-1.342;2024-03-08T07:52:44;99444.93;;;1.73;34.84
63339;BME280;70568;51.378;-1.342;2024-03-08T07:55:11;99442.31;;;1.56;34.90
63339;BME280;70568;51.378;-1.342;2024-03-08T07:57:38;99444.22;;;-0.58;37.54
63339;BME280;70568;51.378;-1.342;2024-03-08T08:00:05;99443.65;;;0.47;36.51
63339;BME280;70568;51.378;-1.342;2024-03-08T08:02:33;99432.20;;;-1.64;38.67
63339;BME280;70568;51.378;-1.342;2024-03-08T08:05:01;99418.87;;;1.23;35.49
63339;BME280;70568;51.378;-1.342;2024-03-08T08:07:28;99426.03;;;-0.42;38.02
63339;BME280;70568;51.378;-1.342;2024-03-08T08:09:55;99425.15;;;-1.13;37.32
63339;BME280;70568;51.378;-1.342;2024-03-08T08:12:22;99423.54;;;0.33;36.93
63339;BME280;70568;51.378;-1.342;2024-03-08T08:14:48;99413.52;;;1.54;34.60
63339;BME280;70568;51.378;-1.342;2024-03-08T08:17:14;99406.66;;;0.50;35.76
63339;BME280;70568;51.378;-1.342;2024-03-08T08:19:41;99409.54;;;-2.12;38.62
63339;BME280;70568;51.378;-1.342;2024-03-08T08:22:08;99408.55;;;-1.17;38.03
63339;BME280;70568;51.378;-1.342;2024-03-08T08:24:35;99403.84;;;-1.37;38.96
63339;BME280;70568;51.378;-1.342;2024-03-08T08:27:03;99396.81;;;1.54;36.11
63339;BME280;70568;51.378;-1.342;2024-03-08T08:29:29;99393.25;;;-0.24;36.73
63339;BME280;70568;51.378;-1.342;2024-03-08T08:31:57;99387.21;;;0.70;36.29
63339;BME280;70568;51.378;-1.342;2024-03-08T08:34:24;99379.17;;;1.71;35.94
63339;BME280;70568;51.378;-1.342;2024-03-08T08:36:51;99376.13;;;0.26;37.18
63339;BME280;70568;51.378;-1.342;2024-03-08T08:39:17;99370.11;;;-0.91;36.63
63339;BME280;70568;51.378;-1.342;2024-03-08T08:41:44;99361.87;;;1.04;36.07
63339;BME280;70568;51.378;-1.342;2024-03-08T08:44:11;99371.22;;;-1.24;37.70
63339;BME280;70568;51.378;-1.342;2024-03-08T08:46:38;99362.37;;;0.09;36.83
63339;BME280;70568;51.378;-1.342;2024-03-08T08:49:05;99359.92;;;0.87;36.59
63339;BME280;70568;51.378;-1.342;2024-03-08T08:51:32;99358.28;;;0.48;37.07
63339;BME280;70568;51.378;-1.342;2024-03-08T08:53:58;99358.87;;;-0.26;37.59
63339;BME280;70568;51.378;-1.342;2024-03-08T08:56:25;99351.59;;;0.25;36.79
63339;BME280;70568;51.378;-1.342;2024-03-08T08:58:51;99352.61;;;-0.38;37.65
63339;BME280;70568;51.378;-1.342;2024-03-08T09:01:18;99349.57;;;-0.58;37.65
63339;BME280;70568;51.378;-1.342;2024-03-08T09:03:44;99340.38;;;-2.42;39.17
63339;BME280;70568;51.378;-1.342;2024-03-08T09:06:11;99342.54;;;0.03;38.75
63339;BME280;70568;51.378;-1.342;2024-03-08T09:08:38;99332.38;;;1.33;36.12
63339;BME280;70568;51.378;-1.342;2024-03-08T09:11:06;99321.98;;;1.59;35.35
63339;BME280;70568;51.378;-1.342;2024-03-08T09:13:33;99320.80;;;1.75;34.80
63339;BME280;70568;51.378;-1.342;2024-03-08T09:16:00;99317.20;;;1.33;35.18
63339;BME280;70568;51.378;-1.342;2024-03-08T09:18:28;99308.20;;;0.56;35.10
63339;BME280;70568;51.378;-1.342;2024-03-08T09:20:55;99303.50;;;0.55;35.62
63339;BME280;70568;51.378;-1.342;2024-03-08T09:23:21;99307.73;;;-3.02;38.74
63339;BME280;70568;51.378;-1.342;2024-03-08T09:25:48;99296.14;;;0.06;35.70
63339;BME280;70568;51.378;-1.342;2024-03-08T09:28:14;99287.39;;;1.08;36.20
63339;BME280;70568;51.378;-1.342;2024-03-08T09:30:41;99288.60;;;-1.30;37.35
63339;BME280;70568;51.378;-1.342;2024-03-08T09:33:08;99280.95;;;1.05;35.57
63339;BME280;70568;51.378;-1.342;2024-03-08T09:35:35;99277.58;;;-1.19;36.18
63339;BME280;70568;51.378;-1.342;2024-03-08T09:38:03;99276.68;;;-1.23;37.07
63339;BME280;70568;51.378;-1.342;2024-03-08T09:40:29;99272.86;;;-1.65;38.76
63339;BME280;70568;51.378;-1.342;2024-03-08T09:42:56;99264.22;;;0.72;36.02
63339;BME280;70568;51.378;-1.342;2024-03-08T09:45:24;99264.15;;;-0.26;35.69
63339;BME280;70568;51.378;-1.342;2024-03-08T09:47:52;99261.47;;;0.11;36.37
63339;BME280;70568;51.378;-1.342;2024-03-08T09:50:19;99258.65;;;0.34;37.30
63339;BME280;70568;51.378;-1.342;2024-03-08T09:52:48;99253.57;;;0.02;37.54
63339;BME280;70568;51.378;-1.342;2024-03-08T09:55:16;99254.22;;;-1.79;38.53
63339;BME280;70568;51.378;-1.342;2024-03-08T09:57:43;99245.10;;;-0.19;37.50
63339;BME280;70568;51.378;-1.342;2024-03-08T10:00:13;99238.22;;;-1.29;37.83
63339;BME280;70568;51.378;-1.342;2024-03-08T10:02:40;99229.38;;;-1.10;38.05
63339;BME280;70568;51.378;-1.342;2024-03-08T10:05:08;99220.16;;;0.24;37.03
63339;BME280;70568;51.378;-1.342;2024-03-08T10:07:36;99216.50;;;-1.55;37.01
63339;BME280;70568;51.378;-1.342;2024-03-08T10:10:03;99204.62;;;1.51;35.20
63339;BME280;70568;51.378;-1.342;2024-03-08T10:12:31;99202.09;;;-0.68;36.03
63339;BME280;70568;51.378;-1.342;2024-03-08T10:14:58;99207.37;;;-0.79;36.59
63339;BME280;70568;51.378;-1.342;2024-03-08T10:17:26;99202.82;;;0.64;36.36
63339;BME280;70568;51.378;-1.342;2024-03-08T10:19:53;99197.42;;;0.52;35.80
63339;BME280;70568;51.378;-1.342;2024-03-08T10:22:20;99195.05;;;-1.62;36.86
63339;BME280;70568;51.378;-1.342;2024-03-08T10:24:47;99188.58;;;-0.50;36.71
63339;BME280;70568;51.378;-1.342;2024-03-08T10:27:16;99191.96;;;1.16;35.05
63339;BME280;70568;51.378;-1.342;2024-03-08T10:29:47;99198.94;;;1.77;33.38
63339;BME280;70568;51.378;-1.342;2024-03-08T10:32:13;99186.29;;;1.27;33.81
63339;BME280;70568;51.378;-1.342;2024-03-08T10:34:40;99188.88;;;-0.07;34.96
63339;BME280;70568;51.378;-1.342;2024-03-08T10:37:12;99191.76;;;-0.33;36.58
63339;BME280;70568;51.378;-1.342;2024-03-08T10:39:45;99194.74;;;-0.56;36.33
63339;BME280;70568;51.378;-1.342;2024-03-08T10:42:16;99184.41;;;0.76;35.41
63339;BME280;70568;51.378;-1.342;2024-03-08T10:44:56;99175.17;;;0.29;34.91
63339;BME280;70568;51.378;-1.342;2024-03-08T10:47:29;99168.59;;;-0.84;34.85
63339;BME280;70568;51.378;-1.342;2024-03-08T10:50:05;99162.16;;;1.44;32.82
63339;BME280;70568;51.378;-1.342;2024-03-08T10:52:36;99163.48;;;3.44;30.35
63339;BME280;70568;51.378;-1.342;2024-03-08T10:55:03;99159.98;;;1.74;32.39
63339;BME280;70568;51.378;-1.342;2024-03-08T10:57:32;99155.59;;;3.62;31.22
63339;BME280;70568;51.378;-1.342;2024-03-08T10:59:58;99154.44;;;4.09;30.74
63339;BME280;70568;51.378;-1.342;2024-03-08T11:02:26;99149.85;;;1.14;31.35
63339;BME280;70568;51.378;-1.342;2024-03-08T11:04:52;99144.39;;;1.07;31.38
63339;BME280;70568;51.378;-1.342;2024-03-08T11:07:20;99136.58;;;2.44;30.35
63339;BME280;70568;51.378;-1.342;2024-03-08T11:09:48;99130.01;;;0.53;31.80
63339;BME280;70568;51.378;-1.342;2024-03-08T11:12:20;99131.79;;;-0.19;33.62
63339;BME280;70568;51.378;-1.342;2024-03-08T11:14:48;99118.58;;;2.05;31.95
63339;BME280;70568;51.378;-1.342;2024-03-08T11:17:16;99121.81;;;2.02;31.47
63339;BME280;70568;51.378;-1.342;2024-03-08T11:19:47;99127.38;;;1.61;32.53
63339;BME280;70568;51.378;-1.342;2024-03-08T11:22:21;99118.14;;;-0.17;32.40
63339;BME280;70568;51.378;-1.342;2024-03-08T11:24:48;99120.95;;;1.08;32.66
63339;BME280;70568;51.378;-1.342;2024-03-08T11:27:15;99118.12;;;0.73;31.57
63339;BME280;70568;51.378;-1.342;2024-03-08T11:29:42;99112.64;;;-0.18;34.08
63339;BME280;70568;51.378;-1.342;2024-03-08T11:32:10;99112.67;;;0.23;33.25
63339;BME280;70568;51.378;-1.342;2024-03-08T11:34:37;99114.67;;;2.10;32.12
63339;BME280;70568;51.378;-1.342;2024-03-08T11:37:05;99109.95;;;2.11;30.92
63339;BME280;70568;51.378;-1.342;2024-03-08T11:39:32;99115.41;;;1.46;32.24
63339;BME280;70568;51.378;-1.342;2024-03-08T11:41:59;99110.34;;;-0.13;33.29
63339;BME280;70568;51.378;-1.342;2024-03-08T11:44:27;99104.79;;;0.99;31.22
63339;BME280;70568;51.378;-1.342;2024-03-08T11:46:54;99111.87;;;1.33;32.37
63339;BME280;70568;51.378;-1.342;2024-03-08T11:49:20;99107.97;;;-0.75;32.60
63339;BME280;70568;51.378;-1.342;2024-03-08T11:51:51;99110.87;;;1.42;32.76
63339;BME280;70568;51.378;-1.342;2024-03-08T11:54:19;99100.96;;;1.46;30.50
63339;BME280;70568;51.378;-1.342;2024-03-08T11:56:46;99095.06;;;1.07;30.65
63339;BME280;70568;51.378;-1.342;2024-03-08T11:59:13;99093.15;;;1.04;31.71
63339;BME280;70568;51.378;-1.342;2024-03-08T12:01:40;99093.51;;;2.99;29.99
63339;BME280;70568;51.378;-1.342;2024-03-08T12:04:12;99094.54;;;0.46;30.96
63339;BME280;70568;51.378;-1.342;2024-03-08T12:06:40;99083.59;;;3.12;30.00
63339;BME280;70568;51.378;-1.342;2024-03-08T12:09:08;99085.24;;;2.11;29.62
63339;BME280;70568;51.378;-1.342;2024-03-08T12:11:36;99080.34;;;2.73;29.40
63339;BME280;70568;51.378;-1.342;2024-03-08T12:14:03;99072.89;;;3.60;28.13
63339;BME280;70568;51.378;-1.342;2024-03-08T12:16:31;99077.59;;;2.03;29.73
63339;BME280;70568;51.378;-1.342;2024-03-08T12:18:58;99075.13;;;4.47;28.00
63339;BME280;70568;51.378;-1.342;2024-03-08T12:21:27;99069.45;;;3.14;28.85
63339;BME280;70568;51.378;-1.342;2024-03-08T12:24:04;99061.13;;;4.95;27.82
63339;BME280;70568;51.378;-1.342;2024-03-08T12:26:31;99059.92;;;4.06;27.65
63339;BME280;70568;51.378;-1.342;2024-03-08T12:29:14;99062.93;;;3.82;28.63
63339;BME280;70568;51.378;-1.342;2024-03-08T12:31:42;99052.62;;;2.26;28.36
63339;BME280;70568;51.378;-1.342;2024-03-08T12:34:09;99053.42;;;2.94;29.11
63339;BME280;70568;51.378;-1.342;2024-03-08T12:36:37;99047.58;;;2.39;29.39
63339;BME280;70568;51.378;-1.342;2024-03-08T12:39:05;99040.64;;;3.02;29.50
63339;BME280;70568;51.378;-1.342;2024-03-08T12:41:39;99043.71;;;4.12;29.09
63339;BME280;70568;51.378;-1.342;2024-03-08T12:44:06;99045.59;;;1.68;28.80
63339;BME280;70568;51.378;-1.342;2024-03-08T12:46:33;99040.28;;;3.09;28.18
63339;BME280;70568;51.378;-1.342;2024-03-08T12:49:01;99047.52;;;2.09;29.19
63339;BME280;70568;51.378;-1.342;2024-03-08T12:51:29;99039.27;;;0.17;30.43
63339;BME280;70568;51.378;-1.342;2024-03-08T12:53:56;99023.27;;;3.79;27.35
63339;BME280;70568;51.378;-1.342;2024-03-08T12:56:29;99015.86;;;3.78;28.59
63339;BME280;70568;51.378;-1.342;2024-03-08T12:58:56;99010.48;;;4.58;27.20